메인 페이지
METAR-TAF:

METAR-TAF

공항 :

컬럼비아, 사우스캐롤라이나, 미국

위도: 33-56-31N, 경도: 081-07-05W, 고도: 71m

현재 날씨관측

예보는 19분 전, 07:56시(UTC)에 발표되었습니다.
서남서4kt
온도 22°C
습도 78%
기압 1012 hPa
시정: 16.1km
고도 12000ft 상공 구름 많음

METAR: KCAE 250756Z 25004KT 10SM BKN120 22/18 A2988 RMK AO2 SLP114 T02170183

시각: 04:15 (08:15 UTC)

예보

예보는 2 시간 36분 전, 05:39시(UTC)에 발표되었습니다.
예보 대상 시간: 25일 06시부터 26일 06시까지 (UTC)
여러 방향의 바람 3kt
시정: 10km
고도 8000ft 상공 구름 보통
고도 12000ft 상공 구름 많음
25일 1400시부터 (UTC)
6kt
시정: 10km
고도 4000ft 상공 구름 보통
고도 25000ft 상공 구름 많음
25일 1900시부터 (UTC)
7kt
시정: 10km
고도 5000ft 상공 구름 많음
시계 내 소나기
26일 0200시부터 (UTC)
여러 방향의 바람 3kt
시정: 10km
고도 8000ft 상공 구름 보통
고도 12000ft 상공 구름 많음

TAF: KCAE 250539Z 2506/2606 VRB03KT P6SM SCT080 BKN120 FM251400 27006KT P6SM SCT040 BKN250 FM251900 27007KT P6SM VCSH BKN050 FM260200 VRB03KT P6SM SCT080 BKN120

4,000개 이상의 공항 관측 자료 및 예보 (METAR 및 TAF 보고).

지도상에서 검색 가능한 기상관측소가 노란 점과 빨간 점으로 표시되어 있습니다.

기상관측소 명을 보려면 표시 위로 마우스를 이동하세요.

날씨 관측과 예보를 보려면 클릭하세요.

지도 변경 : 확대하려면 엑스 표시가 있는 녹색 버튼, 축소하려면 빼기 표시가 있는 녹색 버튼, 다음 페이지의 지도를 보려면 녹색 화살표를 클릭하세요.


METAR-TAF: